sensor_id;sensor_type;location;lat;lon;timestamp;temperature;humidity
43338;DHT22;28933;52.492;13.434;2023-04-01T00:01:31;12.60;99.90
43338;DHT22;28933;52.492;13.434;2023-04-01T00:03:56;12.60;99.90
43338;DHT22;28933;52.492;13.434;2023-04-01T00:06:23;12.60;99.90
43338;DHT22;28933;52.492;13.434;2023-04-01T00:08:48;12.60;99.90
43338;DHT22;28933;52.492;13.434;2023-04-01T00:11:14;12.60;99.90
43338;DHT22;28933;52.492;13.434;2023-04-01T00:13:41;12.60;99.90
43338;DHT22;28933;52.492;13.434;2023-04-01T00:16:07;12.50;99.90
43338;DHT22;28933;52.492;13.434;2023-04-01T00:18:33;12.50;99.90
43338;DHT22;28933;52.492;13.434;2023-04-01T00:20:58;12.50;99.90
43338;DHT22;28933;52.492;13.434;2023-04-01T00:23:25;12.50;99.90
43338;DHT22;28933;52.492;13.434;2023-04-01T00:25:51;12.50;99.90
43338;DHT22;28933;52.492;13.434;2023-04-01T00:28:18;12.40;99.90
43338;DHT22;28933;52.492;13.434;2023-04-01T00:30:44;12.50;99.90
43338;DHT22;28933;52.492;13.434;2023-04-01T00:33:10;12.50;99.90
43338;DHT22;28933;52.492;13.434;2023-04-01T00:35:36;12.50;99.90
43338;DHT22;28933;52.492;13.434;2023-04-01T00:38:03;12.50;99.90
43338;DHT22;28933;52.492;13.434;2023-04-01T00:42:55;12.50;99.90
43338;DHT22;28933;52.492;13.434;2023-04-01T00:45:34;12.50;99.90
43338;DHT22;28933;52.492;13.434;2023-04-01T00:48:22;12.50;99.90
43338;DHT22;28933;52.492;13.434;2023-04-01T00:50:52;12.50;99.90
43338;DHT22;28933;52.492;13.434;2023-04-01T00:53:20;12.50;99.90
43338;DHT22;28933;52.492;13.434;2023-04-01T00:56:00;12.60;99.90
43338;DHT22;28933;52.492;13.434;2023-04-01T00:58:32;12.60;99.90
43338;DHT22;28933;52.492;13.434;2023-04-01T01:00:59;12.60;99.90
43338;DHT22;28933;52.492;13.434;2023-04-01T01:03:25;12.60;99.90
43338;DHT22;28933;52.492;13.434;2023-04-01T01:11:47;12.60;99.90
43338;DHT22;28933;52.492;13.434;2023-04-01T01:14:30;12.60;99.90
43338;DHT22;28933;52.492;13.434;2023-04-01T01:17:28;12.60;99.90
43338;DHT22;28933;52.492;13.434;2023-04-01T01:36:38;12.70;99.90
43338;DHT22;28933;52.492;13.434;2023-04-01T01:39:07;12.70;99.90
43338;DHT22;28933;52.492;13.434;2023-04-01T01:41:46;12.60;99.90
43338;DHT22;28933;52.492;13.434;2023-04-01T01:44:15;12.60;99.90
43338;DHT22;28933;52.492;13.434;2023-04-01T01:46:42;12.60;99.90
43338;DHT22;28933;52.492;13.434;2023-04-01T01:49:11;12.60;99.90
43338;DHT22;28933;52.492;13.434;2023-04-01T01:51:38;12.60;99.90
43338;DHT22;28933;52.492;13.434;2023-04-01T01:54:05;12.60;99.90
43338;DHT22;28933;52.492;13.434;2023-04-01T01:56:32;12.60;99.90
43338;DHT22;28933;52.492;13.434;2023-04-01T01:59:03;12.60;99.90
43338;DHT22;28933;52.492;13.434;2023-04-01T02:01:35;12.60;99.90
43338;DHT22;28933;52.492;13.434;2023-04-01T02:04:03;12.60;99.90
43338;DHT22;28933;52.492;13.434;2023-04-01T02:06:32;12.60;99.90
43338;DHT22;28933;52.492;13.434;2023-04-01T02:09:03;12.60;99.90
43338;DHT22;28933;52.492;13.434;2023-04-01T02:11:36;12.60;99.90
43338;DHT22;28933;52.492;13.434;2023-04-01T02:14:07;12.60;99.90
43338;DHT22;28933;52.492;13.434;2023-04-01T02:16:58;12.60;99.90
43338;DHT22;28933;52.492;13.434;2023-04-01T02:19:32;12.60;99.90
43338;DHT22;28933;52.492;13.434;2023-04-01T02:22:02;12.60;99.90
43338;DHT22;28933;52.492;13.434;2023-04-01T02:24:31;12.60;99.90
43338;DHT22;28933;52.492;13.434;2023-04-01T02:26:59;12.60;99.90
43338;DHT22;28933;52.492;13.434;2023-04-01T02:29:25;12.60;99.90
43338;DHT22;28933;52.492;13.434;2023-04-01T02:31:51;12.50;99.90
43338;DHT22;28933;52.492;13.434;2023-04-01T02:34:19;12.60;99.90
43338;DHT22;28933;52.492;13.434;2023-04-01T02:36:46;12.60;99.90
43338;DHT22;28933;52.492;13.434;2023-04-01T02:39:13;12.60;99.90
43338;DHT22;28933;52.492;13.434;2023-04-01T02:41:40;12.50;99.90
43338;DHT22;28933;52.492;13.434;2023-04-01T02:44:06;12.60;99.90
43338;DHT22;28933;52.492;13.434;2023-04-01T02:46:32;12.60;99.90
43338;DHT22;28933;52.492;13.434;2023-04-01T02:48:58;12.60;99.90
43338;DHT22;28933;52.492;13.434;2023-04-01T02:51:25;12.60;99.90
43338;DHT22;28933;52.492;13.434;2023-04-01T02:53:50;12.60;99.90
43338;DHT22;28933;52.492;13.434;2023-04-01T02:56:16;12.60;99.90
43338;DHT22;28933;52.492;13.434;2023-04-01T02:58:42;12.60;99.90
43338;DHT22;28933;52.492;13.434;2023-04-01T03:01:07;12.60;99.90
43338;DHT22;28933;52.492;13.434;2023-04-01T03:03:33;12.60;99.90
43338;DHT22;28933;52.492;13.434;2023-04-01T03:06:07;12.50;99.90
43338;DHT22;28933;52.492;13.434;2023-04-01T03:08:33;12.50;99.90
43338;DHT22;28933;52.492;13.434;2023-04-01T03:10:59;12.50;99.90
43338;DHT22;28933;52.492;13.434;2023-04-01T03:13:25;12.50;99.90
43338;DHT22;28933;52.492;13.434;2023-04-01T03:15:51;12.40;99.90
43338;DHT22;28933;52.492;13.434;2023-04-01T03:18:16;12.40;99.90
43338;DHT22;28933;52.492;13.434;2023-04-01T03:20:42;12.50;99.90
43338;DHT22;28933;52.492;13.434;2023-04-01T03:23:08;12.50;99.90
43338;DHT22;28933;52.492;13.434;2023-04-01T03:25:34;12.40;99.90
43338;DHT22;28933;52.492;13.434;2023-04-01T03:28:00;12.50;99.90
43338;DHT22;28933;52.492;13.434;2023-04-01T03:30:26;12.50;99.90
43338;DHT22;28933;52.492;13.434;2023-04-01T03:32:51;12.50;99.90
43338;DHT22;28933;52.492;13.434;2023-04-01T03:35:18;12.50;99.90
43338;DHT22;28933;52.492;13.434;2023-04-01T03:37:43;12.50;99.90
43338;DHT22;28933;52.492;13.434;2023-04-01T03:40:10;12.50;99.90
43338;DHT22;28933;52.492;13.434;2023-04-01T03:42:35;12.50;99.90
43338;DHT22;28933;52.492;13.434;2023-04-01T03:45:03;12.50;99.90
43338;DHT22;28933;52.492;13.434;2023-04-01T03:47:29;12.40;99.90
43338;DHT22;28933;52.492;13.434;2023-04-01T03:49:55;12.40;99.90
43338;DHT22;28933;52.492;13.434;2023-04-01T03:52:20;12.50;99.90
43338;DHT22;28933;52.492;13.434;2023-04-01T03:54:46;12.50;99.90
43338;DHT22;28933;52.492;13.434;2023-04-01T03:57:12;12.50;99.90
43338;DHT22;28933;52.492;13.434;2023-04-01T03:59:38;12.50;99.90
43338;DHT22;28933;52.492;13.434;2023-04-01T04:02:03;12.50;99.90
43338;DHT22;28933;52.492;13.434;2023-04-01T04:04:30;12.50;99.90
43338;DHT22;28933;52.492;13.434;2023-04-01T04:06:56;12.40;99.90
43338;DHT22;28933;52.492;13.434;2023-04-01T04:09:22;12.50;99.90
43338;DHT22;28933;52.492;13.434;2023-04-01T04:11:48;12.40;99.90
43338;DHT22;28933;52.492;13.434;2023-04-01T04:14:14;12.40;99.90
43338;DHT22;28933;52.492;13.434;2023-04-01T04:16:40;12.40;99.90
43338;DHT22;28933;52.492;13.434;2023-04-01T04:19:05;12.40;99.90
43338;DHT22;28933;52.492;13.434;2023-04-01T04:21:31;12.40;99.90
43338;DHT22;28933;52.492;13.434;2023-04-01T04:23:59;12.40;99.90
43338;DHT22;28933;52.492;13.434;2023-04-01T04:26:25;12.40;99.90
43338;DHT22;28933;52.492;13.434;2023-04-01T04:28:51;12.50;99.90
43338;DHT22;28933;52.492;13.434;2023-04-01T04:31:21;12.50;99.90
43338;DHT22;28933;52.492;13.434;2023-04-01T04:33:47;12.50;99.90
43338;DHT22;28933;52.492;13.434;2023-04-01T04:36:13;12.50;99.90
43338;DHT22;28933;52.492;13.434;2023-04-01T04:38:39;12.50;99.90
43338;DHT22;28933;52.492;13.434;2023-04-01T04:41:12;12.50;99.90
43338;DHT22;28933;52.492;13.434;2023-04-01T04:43:39;12.40;99.90
43338;DHT22;28933;52.492;13.434;2023-04-01T04:46:08;12.50;99.90
43338;DHT22;28933;52.492;13.434;2023-04-01T04:48:35;12.50;99.90
43338;DHT22;28933;52.492;13.434;2023-04-01T04:51:01;12.50;99.90
43338;DHT22;28933;52.492;13.434;2023-04-01T04:53:26;12.50;99.90
43338;DHT22;28933;52.492;13.434;2023-04-01T04:55:52;12.50;99.90
43338;DHT22;28933;52.492;13.434;2023-04-01T04:58:18;12.50;99.90
43338;DHT22;28933;52.492;13.434;2023-04-01T05:00:44;12.60;99.90
43338;DHT22;28933;52.492;13.434;2023-04-01T05:03:11;12.60;99.90
43338;DHT22;28933;52.492;13.434;2023-04-01T05:05:37;12.50;99.90
43338;DHT22;28933;52.492;13.434;2023-04-01T05:08:03;12.60;99.90
43338;DHT22;28933;52.492;13.434;2023-04-01T05:10:28;12.60;99.90
43338;DHT22;28933;52.492;13.434;2023-04-01T05:12:54;12.60;99.90
43338;DHT22;28933;52.492;13.434;2023-04-01T05:15:20;12.60;99.90
43338;DHT22;28933;52.492;13.434;2023-04-01T05:17:46;12.60;99.90
43338;DHT22;28933;52.492;13.434;2023-04-01T05:20:13;12.70;99.90
43338;DHT22;28933;52.492;13.434;2023-04-01T05:22:38;12.70;99.90
43338;DHT22;28933;52.492;13.434;2023-04-01T05:25:05;12.70;99.90
43338;DHT22;28933;52.492;13.434;2023-04-01T05:27:30;12.70;99.90
43338;DHT22;28933;52.492;13.434;2023-04-01T05:29:57;12.70;99.90
43338;DHT22;28933;52.492;13.434;2023-04-01T05:32:22;12.70;99.90
43338;DHT22;28933;52.492;13.434;2023-04-01T05:34:51;12.70;99.90
43338;DHT22;28933;52.492;13.434;2023-04-01T05:37:17;12.80;99.90
43338;DHT22;28933;52.492;13.434;2023-04-01T05:39:42;12.70;99.90
43338;DHT22;28933;52.492;13.434;2023-04-01T05:42:08;12.70;99.90
43338;DHT22;28933;52.492;13.434;2023-04-01T05:44:34;12.80;99.90
43338;DHT22;28933;52.492;13.434;2023-04-01T05:47:00;12.70;99.90
43338;DHT22;28933;52.492;13.434;2023-04-01T05:49:26;12.70;99.90
43338;DHT22;28933;52.492;13.434;2023-04-01T05:51:52;12.70;99.90
43338;DHT22;28933;52.492;13.434;2023-04-01T05:54:18;12.70;99.90
43338;DHT22;28933;52.492;13.434;2023-04-01T05:56:44;12.80;99.90
43338;DHT22;28933;52.492;13.434;2023-04-01T05:59:10;12.70;99.90
43338;DHT22;28933;52.492;13.434;2023-04-01T06:01:36;12.80;99.90
43338;DHT22;28933;52.492;13.434;2023-04-01T06:04:02;12.70;99.90
43338;DHT22;28933;52.492;13.434;2023-04-01T06:06:29;12.80;99.90
43338;DHT22;28933;52.492;13.434;2023-04-01T06:08:56;12.70;99.90
43338;DHT22;28933;52.492;13.434;2023-04-01T06:11:35;12.80;99.90
43338;DHT22;28933;52.492;13.434;2023-04-01T06:14:43;12.70;99.90
43338;DHT22;28933;52.492;13.434;2023-04-01T06:17:29;12.80;99.90
43338;DHT22;28933;52.492;13.434;2023-04-01T06:20:12;12.80;99.90
43338;DHT22;28933;52.492;13.434;2023-04-01T06:31:33;12.80;99.90
43338;DHT22;28933;52.492;13.434;2023-04-01T06:37:16;12.80;99.90
43338;DHT22;28933;52.492;13.434;2023-04-01T06:48:10;12.90;99.90
43338;DHT22;28933;52.492;13.434;2023-04-01T06:50:55;12.80;99.90
43338;DHT22;28933;52.492;13.434;2023-04-01T06:56:12;12.80;99.90
43338;DHT22;28933;52.492;13.434;2023-04-01T06:58:50;12.90;99.90
43338;DHT22;28933;52.492;13.434;2023-04-01T07:01:26;12.90;99.90
43338;DHT22;28933;52.492;13.434;2023-04-01T07:04:04;12.90;99.90
43338;DHT22;28933;52.492;13.434;2023-04-01T07:07:19;12.90;99.90
43338;DHT22;28933;52.492;13.434;2023-04-01T07:09:33;12.90;99.90
43338;DHT22;28933;52.492;13.434;2023-04-01T07:12:06;12.90;99.90
43338;DHT22;28933;52.492;13.434;2023-04-01T07:14:37;13.00;99.90
43338;DHT22;28933;52.492;13.434;2023-04-01T07:17:12;13.00;99.90
43338;DHT22;28933;52.492;13.434;2023-04-01T07:19:56;13.00;99.90
43338;DHT22;28933;52.492;13.434;2023-04-01T07:22:40;13.00;99.90
43338;DHT22;28933;52.492;13.434;2023-04-01T07:25:21;13.10;99.90
43338;DHT22;28933;52.492;13.434;2023-04-01T07:27:48;13.10;99.90
43338;DHT22;28933;52.492;13.434;2023-04-01T07:30:20;13.10;99.90
43338;DHT22;28933;52.492;13.434;2023-04-01T07:33:09;13.20;99.90
43338;DHT22;28933;52.492;13.434;2023-04-01T07:35:48;13.20;99.90
43338;DHT22;28933;52.492;13.434;2023-04-01T07:49:22;13.40;99.90
43338;DHT22;28933;52.492;13.434;2023-04-01T07:52:13;13.40;99.90
43338;DHT22;28933;52.492;13.434;2023-04-01T07:59:45;13.50;99.90
43338;DHT22;28933;52.492;13.434;2023-04-01T08:05:19;13.50;99.90
43338;DHT22;28933;52.492;13.434;2023-04-01T08:08:06;13.50;99.90
43338;DHT22;28933;52.492;13.434;2023-04-01T08:11:08;13.50;99.90
43338;DHT22;28933;52.492;13.434;2023-04-01T08:22:14;13.50;99.90
43338;DHT22;28933;52.492;13.434;2023-04-01T08:24:44;13.60;99.90
43338;DHT22;28933;52.492;13.434;2023-04-01T08:27:26;13.60;99.90
43338;DHT22;28933;52.492;13.434;2023-04-01T08:30:02;13.60;99.90
43338;DHT22;28933;52.492;13.434;2023-04-01T08:32:36;13.50;99.90
43338;DHT22;28933;52.492;13.434;2023-04-01T08:35:26;13.30;99.90
43338;DHT22;28933;52.492;13.434;2023-04-01T08:37:55;13.10;99.90
43338;DHT22;28933;52.492;13.434;2023-04-01T08:43:22;12.60;99.90
43338;DHT22;28933;52.492;13.434;2023-04-01T08:54:17;12.10;99.90
43338;DHT22;28933;52.492;13.434;2023-04-01T08:57:02;11.90;99.90
43338;DHT22;28933;52.492;13.434;2023-04-01T09:03:10;11.90;99.90
43338;DHT22;28933;52.492;13.434;2023-04-01T09:11:59;11.80;99.90
43338;DHT22;28933;52.492;13.434;2023-04-01T09:36:46;11.50;99.90
43338;DHT22;28933;52.492;13.434;2023-04-01T09:39:38;11.40;99.90
43338;DHT22;28933;52.492;13.434;2023-04-01T09:42:41;11.40;99.90
43338;DHT22;28933;52.492;13.434;2023-04-01T09:51:17;11.20;99.90
43338;DHT22;28933;52.492;13.434;2023-04-01T09:56:38;11.10;99.90
43338;DHT22;28933;52.492;13.434;2023-04-01T10:04:52;11.10;99.90
43338;DHT22;28933;52.492;13.434;2023-04-01T10:19:13;10.90;99.90
43338;DHT22;28933;52.492;13.434;2023-04-01T10:30:26;10.80;99.90
43338;DHT22;28933;52.492;13.434;2023-04-01T10:33:18;10.70;99.90
43338;DHT22;28933;52.492;13.434;2023-04-01T10:38:51;10.70;99.90
43338;DHT22;28933;52.492;13.434;2023-04-01T10:55:51;10.40;99.90
43338;DHT22;28933;52.492;13.434;2023-04-01T11:07:41;10.40;99.90
43338;DHT22;28933;52.492;13.434;2023-04-01T11:13:45;10.30;99.90
43338;DHT22;28933;52.492;13.434;2023-04-01T11:22:23;10.20;99.90
43338;DHT22;28933;52.492;13.434;2023-04-01T11:30:48;10.00;99.90
43338;DHT22;28933;52.492;13.434;2023-04-01T11:33:22;10.00;99.90
43338;DHT22;28933;52.492;13.434;2023-04-01T11:39:10;10.00;99.90
43338;DHT22;28933;52.492;13.434;2023-04-01T11:41:45;10.00;99.90
43338;DHT22;28933;52.492;13.434;2023-04-01T11:44:26;10.00;99.90
43338;DHT22;28933;52.492;13.434;2023-04-01T12:06:44;9.80;99.90
43338;DHT22;28933;52.492;13.434;2023-04-01T12:30:42;9.70;99.90
43338;DHT22;28933;52.492;13.434;2023-04-01T12:39:20;9.60;99.90
43338;DHT22;28933;52.492;13.434;2023-04-01T12:42:20;9.60;99.90
43338;DHT22;28933;52.492;13.434;2023-04-01T12:53:11;9.50;99.90
43338;DHT22;28933;52.492;13.434;2023-04-01T12:55:45;9.40;99.90
43338;DHT22;28933;52.492;13.434;2023-04-01T12:58:52;9.50;99.90
43338;DHT22;28933;52.492;13.434;2023-04-01T13:07:42;9.50;99.90
43338;DHT22;28933;52.492;13.434;2023-04-01T13:19:04;9.30;99.90
43338;DHT22;28933;52.492;13.434;2023-04-01T13:22:22;9.20;99.90
43338;DHT22;28933;52.492;13.434;2023-04-01T13:24:32;9.20;99.90
43338;DHT22;28933;52.492;13.434;2023-04-01T13:27:21;9.20;99.90
43338;DHT22;28933;52.492;13.434;2023-04-01T13:33:03;9.20;99.90
43338;DHT22;28933;52.492;13.434;2023-04-01T13:35:41;9.20;99.90
43338;DHT22;28933;52.492;13.434;2023-04-01T13:49:17;9.30;99.90
43338;DHT22;28933;52.492;13.434;2023-04-01T14:00:17;9.20;99.90
43338;DHT22;28933;52.492;13.434;2023-04-01T14:02:56;9.30;99.90
43338;DHT22;28933;52.492;13.434;2023-04-01T14:13:48;9.20;99.90
43338;DHT22;28933;52.492;13.434;2023-04-01T14:19:44;9.30;99.90
43338;DHT22;28933;52.492;13.434;2023-04-01T14:33:43;9.20;99.90
43338;DHT22;28933;52.492;13.434;2023-04-01T14:39:20;9.20;99.90
43338;DHT22;28933;52.492;13.434;2023-04-01T14:50:21;9.00;99.90
43338;DHT22;28933;52.492;13.434;2023-04-01T14:53:11;9.00;99.90
43338;DHT22;28933;52.492;13.434;2023-04-01T14:55:46;9.00;99.90
43338;DHT22;28933;52.492;13.434;2023-04-01T14:58:18;9.00;99.90
43338;DHT22;28933;52.492;13.434;2023-04-01T15:03:34;8.90;99.90
43338;DHT22;28933;52.492;13.434;2023-04-01T15:09:23;8.90;99.90
43338;DHT22;28933;52.492;13.434;2023-04-01T15:12:08;8.90;99.90
43338;DHT22;28933;52.492;13.434;2023-04-01T15:31:41;8.60;99.90
43338;DHT22;28933;52.492;13.434;2023-04-01T15:39:42;8.60;99.90
43338;DHT22;28933;52.492;13.434;2023-04-01T15:45:17;8.50;99.90
43338;DHT22;28933;52.492;13.434;2023-04-01T15:47:47;8.50;99.90
43338;DHT22;28933;52.492;13.434;2023-04-01T15:50:41;8.40;99.90
43338;DHT22;28933;52.492;13.434;2023-04-01T15:56:51;8.40;99.90
43338;DHT22;28933;52.492;13.434;2023-04-01T16:04:54;8.30;99.90
43338;DHT22;28933;52.492;13.434;2023-04-01T16:07:36;8.40;99.90
43338;DHT22;28933;52.492;13.434;2023-04-01T16:10:24;8.40;99.90
43338;DHT22;28933;52.492;13.434;2023-04-01T16:15:47;8.30;99.90
43338;DHT22;28933;52.492;13.434;2023-04-01T16:21:21;8.10;99.90
43338;DHT22;28933;52.492;13.434;2023-04-01T16:23:55;8.10;99.90
43338;DHT22;28933;52.492;13.434;2023-04-01T16:26:37;8.00;99.90
43338;DHT22;28933;52.492;13.434;2023-04-01T16:29:38;7.90;99.90
43338;DHT22;28933;52.492;13.434;2023-04-01T16:32:31;7.90;99.90
43338;DHT22;28933;52.492;13.434;2023-04-01T16:38:18;7.80;99.90
43338;DHT22;28933;52.492;13.434;2023-04-01T16:41:23;7.70;99.90
43338;DHT22;28933;52.492;13.434;2023-04-01T16:43:59;7.70;99.90
43338;DHT22;28933;52.492;13.434;2023-04-01T16:46:39;7.60;99.90
43338;DHT22;28933;52.492;13.434;2023-04-01T16:52:00;7.50;99.90
43338;DHT22;28933;52.492;13.434;2023-04-01T17:02:14;7.40;99.90
43338;DHT22;28933;52.492;13.434;2023-04-01T17:04:57;7.40;99.90
43338;DHT22;28933;52.492;13.434;2023-04-01T17:24:29;7.40;99.90
43338;DHT22;28933;52.492;13.434;2023-04-01T17:27:04;7.30;99.90
43338;DHT22;28933;52.492;13.434;2023-04-01T17:35:25;7.20;99.90
43338;DHT22;28933;52.492;13.434;2023-04-01T17:40:59;7.10;99.90
43338;DHT22;28933;52.492;13.434;2023-04-01T17:43:48;7.10;99.90
43338;DHT22;28933;52.492;13.434;2023-04-01T17:49:27;7.00;99.90
43338;DHT22;28933;52.492;13.434;2023-04-01T17:55:07;6.90;99.90
43338;DHT22;28933;52.492;13.434;2023-04-01T17:57:46;6.80;99.90
43338;DHT22;28933;52.492;13.434;2023-04-01T18:00:32;6.80;99.90
43338;DHT22;28933;52.492;13.434;2023-04-01T18:06:14;6.70;99.90
43338;DHT22;28933;52.492;13.434;2023-04-01T18:09:02;6.60;99.90
43338;DHT22;28933;52.492;13.434;2023-04-01T18:20:05;6.50;99.90
43338;DHT22;28933;52.492;13.434;2023-04-01T18:27:41;6.40;99.90
43338;DHT22;28933;52.492;13.434;2023-04-01T18:30:18;6.40;99.90
43338;DHT22;28933;52.492;13.434;2023-04-01T18:32:50;6.40;99.90
43338;DHT22;28933;52.492;13.434;2023-04-01T18:46:41;6.40;99.90
43338;DHT22;28933;52.492;13.434;2023-04-01T18:52:13;6.30;99.90
43338;DHT22;28933;52.492;13.434;2023-04-01T18:57:38;6.30;99.90
43338;DHT22;28933;52.492;13.434;2023-04-01T19:00:25;6.30;99.90
43338;DHT22;28933;52.492;13.434;2023-04-01T19:05:53;6.20;99.90
43338;DHT22;28933;52.492;13.434;2023-04-01T19:08:28;6.20;99.90
43338;DHT22;28933;52.492;13.434;2023-04-01T19:19:13;6.20;99.90
43338;DHT22;28933;52.492;13.434;2023-04-01T19:24:58;6.20;99.90
43338;DHT22;28933;52.492;13.434;2023-04-01T19:27:53;6.10;99.90
43338;DHT22;28933;52.492;13.434;2023-04-01T19:36:02;6.10;99.90
43338;DHT22;28933;52.492;13.434;2023-04-01T19:41:40;6.10;99.90
43338;DHT22;28933;52.492;13.434;2023-04-01T19:52:41;6.00;99.90
43338;DHT22;28933;52.492;13.434;2023-04-01T19:55:49;5.90;99.90
43338;DHT22;28933;52.492;13.434;2023-04-01T20:00:44;5.90;99.90
43338;DHT22;28933;52.492;13.434;2023-04-01T20:16:18;5.70;99.90
43338;DHT22;28933;52.492;13.434;2023-04-01T20:24:15;5.70;99.90
43338;DHT22;28933;52.492;13.434;2023-04-01T20:27:09;5.70;99.90
43338;DHT22;28933;52.492;13.434;2023-04-01T20:29:55;5.70;99.90
43338;DHT22;28933;52.492;13.434;2023-04-01T20:32:32;5.60;99.90
43338;DHT22;28933;52.492;13.434;2023-04-01T20:51:26;5.40;99.90
43338;DHT22;28933;52.492;13.434;2023-04-01T20:54:15;5.40;99.90
43338;DHT22;28933;52.492;13.434;2023-04-01T20:56:54;5.30;99.90
43338;DHT22;28933;52.492;13.434;2023-04-01T20:59:28;5.20;99.90
43338;DHT22;28933;52.492;13.434;2023-04-01T21:02:47;5.20;99.90
43338;DHT22;28933;52.492;13.434;2023-04-01T21:05:16;5.20;99.90
43338;DHT22;28933;52.492;13.434;2023-04-01T21:07:48;5.20;99.90
43338;DHT22;28933;52.492;13.434;2023-04-01T21:15:51;5.10;99.90
43338;DHT22;28933;52.492;13.434;2023-04-01T21:38:23;5.00;99.90
43338;DHT22;28933;52.492;13.434;2023-04-01T21:52:09;4.90;99.90
43338;DHT22;28933;52.492;13.434;2023-04-01T22:00:08;4.90;99.90
43338;DHT22;28933;52.492;13.434;2023-04-01T22:03:01;4.90;99.90
43338;DHT22;28933;52.492;13.434;2023-04-01T22:05:54;4.90;99.90
43338;DHT22;28933;52.492;13.434;2023-04-01T22:08:49;4.90;99.90
43338;DHT22;28933;52.492;13.434;2023-04-01T22:11:26;4.90;99.90
43338;DHT22;28933;52.492;13.434;2023-04-01T22:14:13;4.90;99.90
43338;DHT22;28933;52.492;13.434;2023-04-01T22:22:17;4.90;99.90
43338;DHT22;28933;52.492;13.434;2023-04-01T22:24:53;4.90;99.90
43338;DHT22;28933;52.492;13.434;2023-04-01T22:30:23;5.00;99.90
43338;DHT22;28933;52.492;13.434;2023-04-01T22:38:43;4.90;99.90
43338;DHT22;28933;52.492;13.434;2023-04-01T22:43:57;5.00;99.90
43338;DHT22;28933;52.492;13.434;2023-04-01T22:49:09;5.00;99.90
43338;DHT22;28933;52.492;13.434;2023-04-01T22:52:05;5.00;99.90
43338;DHT22;28933;52.492;13.434;2023-04-01T22:54:54;5.00;99.90
43338;DHT22;28933;52.492;13.434;2023-04-01T23:00:12;5.00;99.90
43338;DHT22;28933;52.492;13.434;2023-04-01T23:02:40;5.00;99.90
43338;DHT22;28933;52.492;13.434;2023-04-01T23:05:15;5.00;99.90
43338;DHT22;28933;52.492;13.434;2023-04-01T23:10:49;5.00;99.90
43338;DHT22;28933;52.492;13.434;2023-04-01T23:13:25;5.00;99.90
43338;DHT22;28933;52.492;13.434;2023-04-01T23:15:53;5.00;99.90
43338;DHT22;28933;52.492;13.434;2023-04-01T23:18:26;5.00;99.90
43338;DHT22;28933;52.492;13.434;2023-04-01T23:21:06;5.00;99.90
43338;DHT22;28933;52.492;13.434;2023-04-01T23:24:10;5.00;99.90
43338;DHT22;28933;52.492;13.434;2023-04-01T23:26:59;5.00;99.90
43338;DHT22;28933;52.492;13.434;2023-04-01T23:29:26;5.10;99.90
43338;DHT22;28933;52.492;13.434;2023-04-01T23:32:01;5.10;99.90
43338;DHT22;28933;52.492;13.434;2023-04-01T23:34:34;5.10;99.90
43338;DHT22;28933;52.492;13.434;2023-04-01T23:37:10;5.00;99.90
43338;DHT22;28933;52.492;13.434;2023-04-01T23:39:52;5.10;99.90
43338;DHT22;28933;52.492;13.434;2023-04-01T23:42:42;5.00;99.90
43338;DHT22;28933;52.492;13.434;2023-04-01T23:45:16;5.00;99.90
43338;DHT22;28933;52.492;13.434;2023-04-01T23:47:46;4.90;99.90
43338;DHT22;28933;52.492;13.434;2023-04-01T23:50:33;4.90;99.90
43338;DHT22;28933;52.492;13.434;2023-04-01T23:53:18;4.90;99.90
43338;DHT22;28933;52.492;13.434;2023-04-01T23:55:45;4.90;99.90
43338;DHT22;28933;52.492;13.434;2023-04-01T23:58:24;4.90;99.90
